createdAt,value
2022-10-11T00:00:11.667Z,100980.20
2022-10-11T00:03:41.478Z,100982.80
2022-10-11T00:06:51.527Z,100981.80
2022-10-11T00:09:58.591Z,100980.20
2022-10-11T00:13:05.578Z,100980.00
2022-10-11T00:16:15.660Z,100975.80
2022-10-11T00:19:22.533Z,100981.80
2022-10-11T00:22:32.543Z,100977.80
2022-10-11T00:25:39.609Z,100970.80
2022-10-11T00:28:46.710Z,100964.00
2022-10-11T00:31:57.623Z,100965.40
2022-10-11T00:35:04.602Z,100952.20
2022-10-11T00:38:11.711Z,100948.80
2022-10-11T00:41:21.606Z,100947.40
2022-10-11T00:44:28.580Z,100935.60
2022-10-11T00:47:35.638Z,100937.20
2022-10-11T00:50:42.656Z,100945.40
2022-10-11T00:53:49.665Z,100947.80
2022-10-11T00:56:56.678Z,100939.60
2022-10-11T01:00:03.657Z,100936.40
2022-10-11T01:03:10.688Z,100936.80
2022-10-11T01:06:17.724Z,100938.20
2022-10-11T01:09:24.691Z,100931.80
2022-10-11T01:12:31.690Z,100927.60
2022-10-11T01:15:38.716Z,100929.60
2022-10-11T01:18:48.698Z,100931.40
2022-10-11T01:25:13.741Z,100927.80
2022-10-11T01:28:23.821Z,100922.20
2022-10-11T01:31:33.706Z,100924.80
2022-10-11T01:34:41.749Z,100918.00
2022-10-11T01:37:51.749Z,100908.20
2022-10-11T01:40:58.788Z,100912.40
2022-10-11T01:44:05.792Z,100904.40
2022-10-11T01:47:15.767Z,100904.40
2022-10-11T01:50:22.893Z,100905.80
2022-10-11T01:53:32.787Z,100904.40
2022-10-11T01:56:42.810Z,100906.60
2022-10-11T01:59:49.821Z,100903.80
2022-10-11T02:02:59.858Z,100899.60
2022-10-11T02:06:07.007Z,100898.00
2022-10-11T02:09:14.928Z,100896.80
2022-10-11T02:12:24.852Z,100893.20
2022-10-11T02:15:31.829Z,100897.00
2022-10-11T02:18:38.862Z,100890.60
2022-10-11T02:21:48.875Z,100885.40
2022-10-11T02:24:56.899Z,100886.60
2022-10-11T02:28:03.898Z,100885.40
2022-10-11T02:31:10.878Z,100886.80
2022-10-11T02:34:17.884Z,100887.60
2022-10-11T02:37:24.923Z,100884.00
2022-10-11T02:40:31.858Z,100878.20
2022-10-11T02:43:41.919Z,100871.80
2022-10-11T02:46:48.928Z,100873.80
2022-10-11T02:49:55.974Z,100870.80
2022-10-11T02:53:06.065Z,100862.80
2022-10-11T02:56:13.969Z,100864.20
2022-10-11T02:59:20.922Z,100864.60
2022-10-11T03:02:27.972Z,100860.80
2022-10-11T03:05:34.945Z,100862.40
2022-10-11T03:08:44.977Z,100859.60
2022-10-11T03:11:51.958Z,100853.80
2022-10-11T03:15:02.029Z,100847.00
2022-10-11T03:18:09.041Z,100847.00
2022-10-11T03:21:16.045Z,100842.00
2022-10-11T03:24:23.058Z,100844.40
2022-10-11T03:27:33.135Z,100843.20
2022-10-11T03:30:43.032Z,100841.00
2022-10-11T03:33:50.124Z,100843.40
2022-10-11T03:36:57.050Z,100836.60
2022-10-11T03:40:07.048Z,100838.60
2022-10-11T03:43:14.060Z,100832.80
2022-10-11T03:46:21.051Z,100833.00
2022-10-11T03:49:29.174Z,100828.20
2022-10-11T03:52:36.099Z,100831.40
2022-10-11T03:55:43.082Z,100832.20
2022-10-11T03:58:50.126Z,100829.20
2022-10-11T04:02:03.200Z,100823.80
2022-10-11T04:05:14.116Z,100827.20
2022-10-11T04:08:21.191Z,100826.80
2022-10-11T04:11:33.131Z,100828.40
2022-10-11T04:14:52.249Z,100824.00
2022-10-11T04:18:03.317Z,100829.00
2022-10-11T04:21:10.218Z,100835.00
2022-10-11T04:24:17.204Z,100834.00
2022-10-11T04:27:24.192Z,100829.00
2022-10-11T04:30:34.210Z,100836.00
2022-10-11T04:33:42.166Z,100837.60
2022-10-11T04:36:50.115Z,100838.20
2022-10-11T04:39:57.268Z,100831.20
2022-10-11T04:43:04.317Z,100829.80
2022-10-11T04:46:16.197Z,100830.80
2022-10-11T04:49:23.290Z,100833.40
2022-10-11T04:52:33.226Z,100831.00
2022-10-11T04:55:40.256Z,100838.20
2022-10-11T04:58:47.286Z,100834.40
2022-10-11T05:01:54.349Z,100833.80
2022-10-11T05:05:04.318Z,100835.20
2022-10-11T05:08:11.324Z,100837.40
2022-10-11T05:11:18.389Z,100836.40
2022-10-11T05:14:31.274Z,100833.20
2022-10-11T05:17:38.366Z,100837.00
2022-10-11T05:20:45.445Z,100846.00
2022-10-11T05:23:56.453Z,100842.80
2022-10-11T05:27:06.502Z,100841.00
2022-10-11T05:30:16.388Z,100838.60
2022-10-11T05:33:26.368Z,100838.20
2022-10-11T05:36:33.368Z,100844.20
2022-10-11T05:39:43.460Z,100846.60
2022-10-11T05:42:50.486Z,100846.20
2022-10-11T05:45:57.391Z,100847.40
2022-10-11T05:49:07.373Z,100845.60
2022-10-11T05:52:18.034Z,100848.60
2022-10-11T05:55:25.410Z,100853.40
2022-10-11T05:58:32.408Z,100861.60
2022-10-11T06:01:39.506Z,100862.60
2022-10-11T06:04:52.379Z,100855.80
2022-10-11T06:07:59.458Z,100850.80
2022-10-11T06:11:12.465Z,100850.60
2022-10-11T06:14:22.625Z,100855.20
2022-10-11T06:17:30.475Z,100858.40
2022-10-11T06:20:40.466Z,100856.80
2022-10-11T06:23:47.506Z,100851.00
2022-10-11T06:26:54.575Z,100856.00
2022-10-11T06:30:04.569Z,100854.00
2022-10-11T06:33:14.495Z,100856.20
2022-10-11T06:36:21.499Z,100853.60
2022-10-11T06:39:28.470Z,100853.60
2022-10-11T06:42:38.499Z,100846.60
2022-10-11T06:45:48.556Z,100844.20
2022-10-11T06:48:58.608Z,100851.00
2022-10-11T06:52:08.509Z,100853.60
2022-10-11T06:55:18.627Z,100852.40
2022-10-11T06:58:25.588Z,100847.80
2022-10-11T07:01:32.688Z,100852.60
2022-10-11T07:04:40.658Z,100857.80
2022-10-11T07:07:51.597Z,100854.60
2022-10-11T07:14:18.585Z,100853.20
2022-10-11T07:17:25.588Z,100854.60
2022-10-11T07:20:35.667Z,100849.80
2022-10-11T07:23:52.678Z,100843.00
2022-10-11T07:26:59.609Z,100848.20
2022-10-11T07:30:06.786Z,100845.00
2022-10-11T07:33:19.844Z,100848.20
2022-10-11T07:36:32.752Z,100849.20
2022-10-11T07:39:46.698Z,100847.60
2022-10-11T07:42:55.723Z,100849.40
2022-10-11T07:46:05.277Z,100850.00
2022-10-11T07:49:15.768Z,100847.00
2022-10-11T07:52:28.785Z,100846.80
2022-10-11T07:55:38.773Z,100846.20
2022-10-11T07:58:51.718Z,100843.60
2022-10-11T08:02:01.821Z,100849.60
2022-10-11T08:05:09.771Z,100855.20
2022-10-11T08:08:16.712Z,100851.00
2022-10-11T08:11:26.885Z,100845.40
2022-10-11T08:14:35.883Z,100845.60
2022-10-11T08:17:42.811Z,100848.80
2022-10-11T08:20:52.760Z,100848.00
2022-10-11T08:23:59.765Z,100849.40
2022-10-11T08:27:16.647Z,100847.00
2022-10-11T08:30:27.567Z,100846.00
2022-10-11T08:33:44.977Z,100848.20
2022-10-11T08:45:05.882Z,100838.80
2022-10-11T08:48:20.039Z,100844.80
2022-10-11T08:51:37.513Z,100849.00
2022-10-11T08:54:57.751Z,100846.40
2022-10-11T08:58:06.050Z,100840.60
2022-10-11T09:01:15.015Z,100840.20
2022-10-11T09:04:28.583Z,100847.20
2022-10-11T09:07:57.451Z,100852.20
2022-10-11T09:11:10.973Z,100846.60
2022-10-11T09:14:17.902Z,100841.80
2022-10-11T09:17:29.035Z,100844.40
2022-10-11T09:20:35.946Z,100843.40
2022-10-11T09:23:42.947Z,100847.60
2022-10-11T09:26:52.960Z,100845.80
2022-10-11T09:29:59.949Z,100848.40
2022-10-11T09:33:08.942Z,100840.60
2022-10-11T09:36:16.062Z,100846.00
2022-10-11T09:39:24.232Z,100842.00
2022-10-11T09:42:35.070Z,100836.60
2022-10-11T09:45:44.596Z,100836.00
2022-10-11T09:48:56.101Z,100833.20
2022-10-11T09:52:07.009Z,100830.80
2022-10-11T09:55:17.622Z,100824.00
2022-10-11T09:58:27.093Z,100823.20
2022-10-11T10:01:34.172Z,100821.20
2022-10-11T10:04:41.032Z,100810.40
2022-10-11T10:07:48.181Z,100808.40
2022-10-11T10:11:01.018Z,100808.80
2022-10-11T10:14:11.156Z,100803.60
2022-10-11T10:17:24.015Z,100801.00
2022-10-11T10:20:40.087Z,100801.20
2022-10-11T10:23:57.058Z,100797.40
2022-10-11T10:27:04.089Z,100791.80
2022-10-11T10:30:14.142Z,100789.20
2022-10-11T10:33:25.317Z,100787.00
2022-10-11T10:36:33.117Z,100784.20
2022-10-11T10:39:40.155Z,100782.40
2022-10-11T10:42:50.155Z,100780.20
2022-10-11T10:46:00.330Z,100780.40
2022-10-11T10:49:34.857Z,100777.80
2022-10-11T10:52:40.191Z,100775.60
2022-10-11T10:55:56.224Z,100777.60
2022-10-11T10:59:06.155Z,100777.80
2022-10-11T11:02:39.032Z,100776.20
2022-10-11T11:05:44.230Z,100777.60
2022-10-11T11:08:57.419Z,100769.80
2022-10-11T11:12:22.102Z,100767.40
2022-10-11T11:15:37.994Z,100761.40
2022-10-11T11:18:50.321Z,100761.20
2022-10-11T11:21:59.401Z,100753.60
2022-10-11T11:25:14.394Z,100752.20
2022-10-11T11:28:21.353Z,100745.00
2022-10-11T11:31:38.673Z,100743.60
2022-10-11T11:35:05.495Z,100740.20
2022-10-11T11:38:15.436Z,100738.40
2022-10-11T11:41:26.339Z,100732.40
2022-10-11T11:44:36.362Z,100731.60
2022-10-11T11:47:46.406Z,100726.00
2022-10-11T11:50:56.383Z,100720.20
2022-10-11T11:54:03.301Z,100718.00
2022-10-11T11:57:12.284Z,100717.00
2022-10-11T12:00:18.372Z,100715.00
2022-10-11T12:03:25.340Z,100707.60
2022-10-11T12:06:52.472Z,100700.20
2022-10-11T12:10:08.390Z,100699.20
2022-10-11T12:13:18.432Z,100699.20
2022-10-11T12:16:25.420Z,100702.40
2022-10-11T12:19:33.902Z,100703.60
2022-10-11T12:22:41.524Z,100701.40
2022-10-11T12:25:48.426Z,100705.00
2022-10-11T12:28:55.478Z,100698.60
2022-10-11T12:32:03.476Z,100692.60
2022-10-11T12:35:11.545Z,100693.40
2022-10-11T12:38:43.449Z,100688.40
2022-10-11T12:41:52.453Z,100692.60
2022-10-11T12:45:05.471Z,100695.60
2022-10-11T12:48:15.419Z,100692.40
2022-10-11T12:51:25.571Z,100688.00
2022-10-11T12:54:36.885Z,100687.00
2022-10-11T12:58:01.632Z,100685.00
2022-10-11T13:01:17.687Z,100683.60
2022-10-11T13:04:34.470Z,100680.20
2022-10-11T13:07:41.673Z,100678.00
2022-10-11T13:10:55.253Z,100676.20
2022-10-11T13:14:07.587Z,100669.20
2022-10-11T13:17:18.544Z,100670.00
2022-10-11T13:20:25.619Z,100666.40
2022-10-11T13:23:32.925Z,100658.80
2022-10-11T13:26:40.555Z,100662.80
2022-10-11T13:29:50.749Z,100662.00
2022-10-11T13:36:28.571Z,100662.20
2022-10-11T13:39:38.607Z,100657.20
2022-10-11T13:42:49.523Z,100656.00
2022-10-11T13:46:09.131Z,100654.80
2022-10-11T13:49:23.596Z,100654.80
2022-10-11T13:52:33.719Z,100654.00
2022-10-11T13:55:43.688Z,100654.60
2022-10-11T13:58:51.699Z,100657.20
2022-10-11T14:01:59.760Z,100661.40
2022-10-11T14:05:09.656Z,100661.20
2022-10-11T14:08:19.661Z,100660.40
2022-10-11T14:11:26.669Z,100661.60
2022-10-11T14:14:33.657Z,100664.20
2022-10-11T14:17:40.671Z,100667.00
2022-10-11T14:20:53.685Z,100665.00
2022-10-11T14:24:01.589Z,100660.60
2022-10-11T14:27:08.791Z,100658.80
2022-10-11T14:30:25.606Z,100658.80
2022-10-11T14:33:33.920Z,100662.60
2022-10-11T14:36:48.768Z,100662.00
2022-10-11T14:39:58.698Z,100660.20
2022-10-11T14:43:05.761Z,100661.00
2022-10-11T14:46:15.829Z,100664.40
2022-10-11T14:49:25.888Z,100664.20
2022-10-11T14:52:39.751Z,100666.60
2022-10-11T14:55:49.754Z,100661.80
2022-10-11T14:58:59.785Z,100663.60
2022-10-11T15:02:09.746Z,100665.80
2022-10-11T15:05:16.799Z,100670.00
2022-10-11T15:08:23.888Z,100667.80
2022-10-11T15:11:39.998Z,100668.20
2022-10-11T15:14:46.812Z,100672.60
2022-10-11T15:17:54.886Z,100676.40
2022-10-11T15:21:01.795Z,100680.40
2022-10-11T15:24:12.787Z,100678.60
2022-10-11T15:27:22.936Z,100682.80
2022-10-11T15:30:37.099Z,100678.60
2022-10-11T15:33:50.917Z,100685.60
2022-10-11T15:36:58.907Z,100683.00
2022-10-11T15:40:05.879Z,100683.60
2022-10-11T15:43:12.836Z,100684.40
2022-10-11T15:46:25.923Z,100684.20
2022-10-11T15:49:35.894Z,100688.80
2022-10-11T15:52:42.977Z,100690.20
2022-10-11T15:55:52.924Z,100692.80
2022-10-11T15:59:02.958Z,100694.60
2022-10-11T16:02:24.007Z,100698.20
2022-10-11T16:05:31.930Z,100700.00
2022-10-11T16:08:41.910Z,100697.00
2022-10-11T16:11:49.090Z,100698.40
2022-10-11T16:14:59.066Z,100700.60
2022-10-11T16:18:06.019Z,100702.00
2022-10-11T16:21:16.054Z,100704.00
2022-10-11T16:24:30.010Z,100705.60
2022-10-11T16:27:37.016Z,100710.00
2022-10-11T16:30:47.045Z,100713.00
2022-10-11T16:34:07.388Z,100714.00
2022-10-11T16:37:20.066Z,100715.80
2022-10-11T16:40:30.042Z,100714.00
2022-10-11T16:43:40.032Z,100717.20
2022-10-11T16:46:54.060Z,100715.20
2022-10-11T16:50:09.100Z,100719.60
2022-10-11T16:53:16.178Z,100717.00
2022-10-11T16:56:26.018Z,100714.00
2022-10-11T16:59:33.054Z,100714.80
2022-10-11T17:02:40.046Z,100710.80
2022-10-11T17:05:48.532Z,100709.60
2022-10-11T17:08:58.228Z,100708.00
2022-10-11T17:12:05.058Z,100708.00
2022-10-11T17:15:12.165Z,100706.00
2022-10-11T17:18:19.122Z,100706.40
2022-10-11T17:21:29.150Z,100707.60
2022-10-11T17:24:39.168Z,100705.00
2022-10-11T17:27:49.159Z,100703.80
2022-10-11T17:30:58.151Z,100701.40
2022-10-11T17:34:11.099Z,100706.40
2022-10-11T17:37:19.281Z,100707.20
2022-10-11T17:40:30.178Z,100712.40
2022-10-11T17:43:37.230Z,100704.80
2022-10-11T17:46:47.163Z,100706.40
2022-10-11T17:49:57.197Z,100711.00
2022-10-11T17:53:04.135Z,100712.80
2022-10-11T17:56:16.264Z,100708.60
2022-10-11T17:59:23.399Z,100708.80
2022-10-11T18:02:31.201Z,100705.00
2022-10-11T18:05:38.212Z,100711.60
2022-10-11T18:08:48.280Z,100714.60
2022-10-11T18:11:59.316Z,100713.20
2022-10-11T18:15:12.394Z,100707.40
2022-10-11T18:18:20.264Z,100707.20
2022-10-11T18:21:34.284Z,100708.40
2022-10-11T18:24:46.236Z,100704.00
2022-10-11T18:27:53.525Z,100701.80
2022-10-11T18:31:01.296Z,100700.80
2022-10-11T18:34:08.303Z,100703.80
2022-10-11T18:37:18.290Z,100704.20
2022-10-11T18:40:27.340Z,100705.20
2022-10-11T18:43:34.428Z,100711.00
2022-10-11T18:46:41.288Z,100711.60
2022-10-11T18:49:51.443Z,100716.60
2022-10-11T18:52:59.408Z,100717.40
2022-10-11T18:56:09.670Z,100722.60
2022-10-11T18:59:17.312Z,100723.20
2022-10-11T19:02:27.383Z,100728.60
2022-10-11T19:05:34.426Z,100723.20
2022-10-11T19:08:44.398Z,100727.60
2022-10-11T19:11:54.397Z,100733.80
2022-10-11T19:15:01.407Z,100729.20
2022-10-11T19:18:11.397Z,100727.80
2022-10-11T19:21:21.614Z,100729.60
2022-10-11T19:24:29.400Z,100728.80
2022-10-11T19:27:36.501Z,100733.20
2022-10-11T19:30:43.427Z,100731.20
2022-10-11T19:33:50.604Z,100733.20
2022-10-11T19:36:58.460Z,100733.40
2022-10-11T19:40:05.476Z,100739.80
2022-10-11T19:43:15.445Z,100741.00
2022-10-11T19:49:53.445Z,100749.80
2022-10-11T19:53:00.533Z,100754.40
2022-10-11T19:56:07.542Z,100757.20
2022-10-11T19:59:14.507Z,100750.00
2022-10-11T20:02:24.523Z,100753.20
2022-10-11T20:05:34.637Z,100756.00
2022-10-11T20:08:44.650Z,100750.80
2022-10-11T20:11:52.522Z,100755.80
2022-10-11T20:14:59.526Z,100754.00
2022-10-11T20:18:06.551Z,100753.20
2022-10-11T20:21:13.673Z,100752.20
2022-10-11T20:24:21.542Z,100755.20
2022-10-11T20:27:31.880Z,100757.80
2022-10-11T20:30:39.556Z,100752.40
2022-10-11T20:33:46.634Z,100752.00
2022-10-11T20:36:53.612Z,100759.60
2022-10-11T20:40:00.579Z,100754.40
2022-10-11T20:43:07.594Z,100756.20
2022-10-11T20:46:17.613Z,100759.00
2022-10-11T20:49:27.654Z,100758.60
2022-10-11T20:52:40.644Z,100754.40
2022-10-11T20:55:50.663Z,100755.60
2022-10-11T20:59:09.020Z,100754.60
2022-10-11T21:02:19.641Z,100757.80
2022-10-11T21:05:25.719Z,100754.40
2022-10-11T21:08:35.656Z,100751.60
2022-10-11T21:11:45.648Z,100751.40
2022-10-11T21:14:54.787Z,100754.00
2022-10-11T21:18:13.704Z,100752.00
2022-10-11T21:21:23.691Z,100749.20
2022-10-11T21:24:30.742Z,100746.40
2022-10-11T21:27:40.709Z,100752.20
2022-10-11T21:30:50.671Z,100750.20
2022-10-11T21:33:57.698Z,100742.80
2022-10-11T21:37:04.763Z,100743.60
2022-10-11T21:40:11.744Z,100742.80
2022-10-11T21:43:21.768Z,100739.60
2022-10-11T21:46:54.144Z,100742.40
2022-10-11T21:49:58.744Z,100740.80
2022-10-11T21:53:09.931Z,100736.80
2022-10-11T21:56:17.842Z,100743.20
2022-10-11T21:59:28.661Z,100744.60
2022-10-11T22:02:35.996Z,100746.40
2022-10-11T22:05:43.773Z,100743.00
2022-10-11T22:08:53.740Z,100742.00
2022-10-11T22:12:04.852Z,100741.80
2022-10-11T22:15:11.834Z,100747.80
2022-10-11T22:18:21.847Z,100744.20
2022-10-11T22:21:28.931Z,100744.80
2022-10-11T22:24:35.847Z,100744.40
2022-10-11T22:27:42.877Z,100742.20
2022-10-11T22:30:52.869Z,100743.60
2022-10-11T22:33:59.950Z,100738.20
2022-10-11T22:37:09.968Z,100739.20
2022-10-11T22:40:19.860Z,100744.20
2022-10-11T22:43:29.905Z,100742.60
2022-10-11T22:46:40.944Z,100740.00
2022-10-11T22:49:50.995Z,100739.60
2022-10-11T22:52:58.967Z,100740.20
2022-10-11T22:56:05.924Z,100743.80
2022-10-11T22:59:15.985Z,100744.40
2022-10-11T23:02:22.965Z,100739.80
2022-10-11T23:05:29.996Z,100743.40
2022-10-11T23:08:37.053Z,100742.40
2022-10-11T23:11:46.994Z,100741.20
2022-10-11T23:14:53.979Z,100742.60
2022-10-11T23:18:01.980Z,100747.40
2022-10-11T23:21:12.128Z,100741.60
2022-10-11T23:24:20.100Z,100744.00
2022-10-11T23:27:30.033Z,100745.40
2022-10-11T23:30:37.061Z,100745.40
2022-10-11T23:33:47.002Z,100741.60
2022-10-11T23:36:57.095Z,100744.00
2022-10-11T23:40:04.014Z,100743.20
2022-10-11T23:43:11.098Z,100736.80
2022-10-11T23:46:25.039Z,100742.40
2022-10-11T23:49:32.089Z,100743.40
2022-10-11T23:52:42.074Z,100742.80
2022-10-11T23:55:49.160Z,100741.80
2022-10-11T23:58:59.064Z,100738.80
